Time;durP1;ratioP1;P1;durP2;ratioP2;P2;SDS_P1;SDS_P2;PMS_P1;PMS_P2;Temp;Humidity;BMP_temperature;BMP_pressure;BME280_temperature;BME280_humidity;BME280_pressure;Samples;Min_cycle;Max_cycle;Signal;HPM_P1;HPM_P2
2021/05/13 00:00:26;;;;;;;5.10;4.03;;;11.70;99.90;;;;;;4897793;29;20221;-67
2021/05/13 00:02:51;;;;;;;5.43;4.57;;;11.70;99.90;;;;;;4898491;29;20554;-65
2021/05/13 00:05:17;;;;;;;6.03;3.80;;;11.70;99.90;;;;;;4898371;29;20487;-66
2021/05/13 00:07:43;;;;;;;5.67;4.67;;;11.60;99.90;;;;;;4899044;29;20175;-67
2021/05/13 00:10:13;;;;;;;5.30;4.50;;;11.60;99.90;;;;;;4897525;29;20186;-67
2021/05/13 00:12:44;;;;;;;6.40;4.43;;;11.50;99.90;;;;;;4898240;29;20649;-67
2021/05/13 00:15:14;;;;;;;4.97;3.97;;;11.60;99.90;;;;;;4897816;29;20447;-66
2021/05/13 00:17:40;;;;;;;4.80;4.40;;;11.60;99.90;;;;;;4898128;29;20499;-66
2021/05/13 00:20:10;;;;;;;4.13;3.50;;;11.50;99.90;;;;;;4897147;29;20458;-66
2021/05/13 00:22:35;;;;;;;5.83;4.60;;;11.60;99.90;;;;;;4898019;29;20199;-66
2021/05/13 00:25:01;;;;;;;4.10;3.80;;;11.60;99.90;;;;;;4897855;29;20431;-66
2021/05/13 00:27:26;;;;;;;6.43;3.83;;;11.70;99.90;;;;;;4898062;29;20642;-66
2021/05/13 00:29:52;;;;;;;4.30;3.57;;;11.70;99.90;;;;;;4897178;29;20194;-66
2021/05/13 00:32:18;;;;;;;4.97;3.87;;;11.70;99.90;;;;;;4897945;29;20179;-67
2021/05/13 00:34:43;;;;;;;6.03;4.00;;;11.70;99.90;;;;;;4898296;29;20221;-66
2021/05/13 00:37:09;;;;;;;3.70;3.40;;;11.70;99.90;;;;;;4897614;29;20661;-66
2021/05/13 00:39:34;;;;;;;9.40;3.10;;;11.60;99.90;;;;;;4896799;29;20672;-67
2021/05/13 00:42:00;;;;;;;5.93;3.90;;;11.70;99.90;;;;;;4897607;29;20171;-67
2021/05/13 00:44:26;;;;;;;4.17;3.60;;;11.70;99.90;;;;;;4897538;29;20187;-66
2021/05/13 00:46:52;;;;;;;3.73;3.43;;;11.70;99.90;;;;;;4897792;29;20190;-67
2021/05/13 00:49:19;;;;;;;5.50;3.90;;;11.60;99.90;;;;;;4897145;29;20439;-66
2021/05/13 00:51:45;;;;;;;4.70;4.00;;;11.50;99.90;;;;;;4898053;29;20200;-66
2021/05/13 00:54:12;;;;;;;6.73;4.10;;;11.40;99.90;;;;;;4897754;29;20893;-67
2021/05/13 00:56:37;;;;;;;6.40;4.17;;;11.40;99.90;;;;;;4897551;29;20427;-67
2021/05/13 00:59:07;;;;;;;9.87;5.30;;;11.30;99.90;;;;;;4896567;29;21167;-67
2021/05/13 01:01:54;;;;;;;4.70;4.30;;;11.30;99.90;;;;;;4897275;29;20266;-66
2021/05/13 01:04:20;;;;;;;5.17;4.10;;;11.20;99.90;;;;;;4896835;29;20511;-65
2021/05/13 01:06:47;;;;;;;8.00;4.83;;;11.20;99.90;;;;;;4897104;29;20449;-67
2021/05/13 01:09:20;;;;;;;5.20;4.63;;;11.20;99.90;;;;;;4896869;29;20445;-67
2021/05/13 01:11:49;;;;;;;5.77;4.87;;;11.10;99.90;;;;;;4897230;29;20419;-65
2021/05/13 01:16:52;;;;;;;4.90;4.40;;;11.20;99.90;;;;;;4897025;29;20466;-67
2021/05/13 01:19:18;;;;;;;4.90;4.60;;;11.40;99.90;;;;;;4896299;29;20462;-65
2021/05/13 01:21:44;;;;;;;5.03;4.33;;;11.40;99.90;;;;;;4896718;29;21025;-67
2021/05/13 01:24:11;;;;;;;4.73;3.63;;;11.50;99.90;;;;;;4896811;29;20222;-66
2021/05/13 01:26:37;;;;;;;4.47;3.90;;;11.50;99.90;;;;;;4896397;29;20420;-67
2021/05/13 01:29:03;;;;;;;5.23;3.87;;;11.40;99.90;;;;;;4896536;29;20479;-67
2021/05/13 01:31:29;;;;;;;5.60;4.30;;;11.20;99.90;;;;;;4896720;29;20672;-66
2021/05/13 01:33:55;;;;;;;5.50;4.70;;;11.20;99.90;;;;;;4896386;29;20455;-67
2021/05/13 01:36:20;;;;;;;7.60;4.93;;;11.20;99.90;;;;;;4896728;29;20179;-66
2021/05/13 01:38:46;;;;;;;7.53;4.50;;;11.20;99.90;;;;;;4895897;29;20191;-66
2021/05/13 01:41:11;;;;;;;5.97;5.40;;;11.20;99.90;;;;;;4896684;29;20488;-67
2021/05/13 01:43:37;;;;;;;5.77;4.90;;;11.20;99.90;;;;;;4896668;29;20172;-67
2021/05/13 01:46:03;;;;;;;5.70;4.47;;;11.20;99.90;;;;;;4896487;29;20732;-67
2021/05/13 01:48:29;;;;;;;5.60;4.93;;;11.20;99.90;;;;;;4896698;29;20226;-65
2021/05/13 01:50:54;;;;;;;11.03;5.20;;;11.20;99.90;;;;;;4895723;29;20171;-67
2021/05/13 01:53:20;;;;;;;6.30;4.60;;;11.20;99.90;;;;;;4896332;29;20427;-66
2021/05/13 01:55:47;;;;;;;6.20;4.53;;;11.20;99.90;;;;;;4896141;29;20677;-66
2021/05/13 01:58:13;;;;;;;7.27;5.40;;;11.20;99.90;;;;;;4896212;29;20423;-66
2021/05/13 02:00:40;;;;;;;6.33;4.40;;;11.10;99.90;;;;;;4895294;29;20467;-66
2021/05/13 02:03:06;;;;;;;6.43;5.93;;;11.10;99.90;;;;;;4896409;29;20175;-67
2021/05/13 02:05:32;;;;;;;5.27;4.87;;;11.00;99.90;;;;;;4896110;29;20530;-67
2021/05/13 02:07:58;;;;;;;7.20;4.90;;;11.10;99.90;;;;;;4896239;29;20483;-67
2021/05/13 02:10:24;;;;;;;5.77;5.20;;;11.00;99.90;;;;;;4895604;29;20433;-67
2021/05/13 02:12:49;;;;;;;5.70;5.20;;;11.00;99.90;;;;;;4896380;29;20551;-67
2021/05/13 02:15:16;;;;;;;7.40;4.70;;;10.90;99.90;;;;;;4895972;29;20275;-66
2021/05/13 02:17:43;;;;;;;8.50;5.90;;;11.00;99.90;;;;;;4895922;29;20187;-66
2021/05/13 02:20:11;;;;;;;7.97;4.43;;;11.00;99.90;;;;;;4895245;29;20510;-66
2021/05/13 02:22:37;;;;;;;5.47;5.00;;;10.90;99.90;;;;;;4895958;29;20469;-66
2021/05/13 02:25:04;;;;;;;5.30;4.67;;;10.80;99.90;;;;;;4894564;29;20495;-65
2021/05/13 02:27:30;;;;;;;5.00;4.47;;;10.70;99.90;;;;;;4895838;29;20837;-67
2021/05/13 02:29:55;;;;;;;7.40;5.93;;;10.60;99.90;;;;;;4895031;29;20872;-67
2021/05/13 02:32:21;;;;;;;5.53;5.13;;;10.60;99.90;;;;;;4895941;29;20175;-67
2021/05/13 02:34:47;;;;;;;5.50;4.83;;;10.50;99.90;;;;;;4895664;29;20345;-66
2021/05/13 02:37:12;;;;;;;5.63;5.13;;;10.50;99.90;;;;;;4895609;29;20183;-66
2021/05/13 02:39:38;;;;;;;5.97;5.47;;;10.50;99.90;;;;;;4894978;29;20622;-66
2021/05/13 02:42:04;;;;;;;8.97;7.50;;;10.50;99.90;;;;;;4895620;29;20175;-66
2021/05/13 02:44:29;;;;;;;8.23;6.70;;;10.50;99.90;;;;;;4895472;29;20635;-66
2021/05/13 02:46:55;;;;;;;6.70;6.10;;;10.50;99.90;;;;;;4895688;29;20487;-66
2021/05/13 02:49:20;;;;;;;6.87;6.07;;;10.50;99.90;;;;;;4895069;29;20202;-67
2021/05/13 02:51:46;;;;;;;9.07;5.70;;;10.50;99.90;;;;;;4895719;29;20266;-67
2021/05/13 02:54:11;;;;;;;6.50;5.80;;;10.50;99.90;;;;;;4895679;29;20203;-66
2021/05/13 02:56:37;;;;;;;6.20;5.63;;;10.50;99.90;;;;;;4895757;29;20469;-66
2021/05/13 02:59:03;;;;;;;8.23;5.73;;;10.50;99.90;;;;;;4894801;29;20556;-67
2021/05/13 03:01:31;;;;;;;6.40;6.00;;;10.40;99.90;;;;;;4895632;29;20197;-66
2021/05/13 03:03:58;;;;;;;8.70;5.40;;;10.40;99.90;;;;;;4895481;29;20574;-66
2021/05/13 03:06:25;;;;;;;8.50;6.13;;;10.40;99.90;;;;;;4895564;29;20439;-65
2021/05/13 03:08:56;;;;;;;7.00;6.40;;;10.40;99.90;;;;;;4894867;29;20426;-66
2021/05/13 03:11:23;;;;;;;5.60;5.17;;;10.40;99.90;;;;;;4895705;29;20791;-66
2021/05/13 03:13:54;;;;;;;5.97;5.37;;;10.50;99.90;;;;;;4895431;29;20449;-66
2021/05/13 03:16:20;;;;;;;6.67;4.40;;;10.50;99.90;;;;;;4895661;29;20426;-67
2021/05/13 03:18:50;;;;;;;5.60;4.90;;;10.50;99.90;;;;;;4894621;29;20458;-65
2021/05/13 03:24:35;;;;;;;8.53;5.23;;;10.40;99.90;;;;;;4883598;29;20809;-66
2021/05/13 03:27:10;;;;;;;5.00;4.50;;;10.30;99.90;;;;;;4895505;29;20419;-65
2021/05/13 03:29:36;;;;;;;6.20;5.33;;;10.20;99.90;;;;;;4894818;29;20771;-65
2021/05/13 03:32:01;;;;;;;6.07;4.73;;;10.20;99.90;;;;;;4895607;29;20442;-66
2021/05/13 03:34:27;;;;;;;5.47;4.53;;;10.30;99.90;;;;;;4895459;29;20772;-66
2021/05/13 03:36:53;;;;;;;7.37;5.30;;;10.30;99.90;;;;;;4895494;29;20176;-66
2021/05/13 03:39:19;;;;;;;6.70;5.17;;;10.20;99.90;;;;;;4894869;29;20231;-66
2021/05/13 03:41:44;;;;;;;7.33;5.57;;;10.20;99.90;;;;;;4895397;29;20255;-65
2021/05/13 03:44:10;;;;;;;6.57;5.80;;;10.10;99.90;;;;;;4895361;29;21068;-65
2021/05/13 03:46:36;;;;;;;6.57;5.97;;;10.10;99.90;;;;;;4895173;29;20701;-66
2021/05/13 03:49:01;;;;;;;7.63;5.37;;;10.00;99.90;;;;;;4894750;29;20201;-65
2021/05/13 03:51:27;;;;;;;8.03;6.53;;;9.90;99.90;;;;;;4898481;29;20242;-67
2021/05/13 03:53:52;;;;;;;6.27;5.70;;;9.90;99.90;;;;;;4898364;29;20612;-66
2021/05/13 03:56:18;;;;;;;6.30;5.40;;;9.90;99.90;;;;;;4898643;29;20301;-66
2021/05/13 03:58:50;;;;;;;7.53;5.20;;;9.90;99.90;;;;;;4898103;29;20549;-67
2021/05/13 04:01:46;;;;;;;7.50;5.67;;;9.80;99.90;;;;;;4898445;29;20292;-65
2021/05/13 04:04:01;;;;;;;6.97;6.30;;;9.80;99.90;;;;;;4898069;29;20549;-66
2021/05/13 04:06:26;;;;;;;6.10;5.50;;;9.90;99.90;;;;;;4898418;29;20988;-65
2021/05/13 04:08:52;;;;;;;8.13;6.90;;;9.90;99.90;;;;;;4897555;29;20271;-66
2021/05/13 04:11:18;;;;;;;6.70;5.07;;;9.90;99.90;;;;;;4898293;29;20253;-66
2021/05/13 04:13:44;;;;;;;6.50;5.80;;;10.00;99.90;;;;;;4898131;29;20258;-66
2021/05/13 04:16:11;;;;;;;6.00;5.40;;;10.00;99.90;;;;;;4898047;29;20614;-66
2021/05/13 04:18:37;;;;;;;6.27;5.77;;;10.10;99.90;;;;;;4897560;29;20426;-66
2021/05/13 04:21:02;;;;;;;7.40;6.33;;;10.20;99.90;;;;;;4897484;29;20479;-67
2021/05/13 04:23:28;;;;;;;6.70;6.10;;;10.30;99.90;;;;;;4898215;29;20179;-66
2021/05/13 04:25:54;;;;;;;5.47;4.50;;;10.40;99.90;;;;;;4897887;29;20175;-66
2021/05/13 04:28:19;;;;;;;5.87;5.20;;;10.40;99.90;;;;;;4897904;29;20248;-66
2021/05/13 04:30:45;;;;;;;6.87;6.03;;;10.50;99.90;;;;;;4897133;29;20606;-66
2021/05/13 04:33:12;;;;;;;6.10;5.60;;;10.50;99.90;;;;;;4897920;29;20664;-66
2021/05/13 04:35:38;;;;;;;8.23;6.07;;;10.60;99.90;;;;;;4897740;29;20219;-66
2021/05/13 04:38:03;;;;;;;6.80;5.80;;;10.70;99.90;;;;;;4897676;29;20779;-66
2021/05/13 04:40:29;;;;;;;6.30;5.50;;;10.90;99.90;;;;;;4896962;29;20323;-66
2021/05/13 04:42:54;;;;;;;6.07;5.47;;;10.90;99.90;;;;;;4897621;29;20704;-66
2021/05/13 04:45:20;;;;;;;8.07;5.87;;;11.10;99.90;;;;;;4897899;29;20567;-66
2021/05/13 04:50:11;;;;;;;6.10;5.50;;;11.10;99.90;;;;;;4897025;29;20210;-66
2021/05/13 04:52:38;;;;;;;8.53;5.70;;;11.10;99.90;;;;;;4897633;29;20257;-66
2021/05/13 04:55:06;;;;;;;7.80;5.80;;;11.10;99.90;;;;;;4897426;29;20803;-66
2021/05/13 04:57:31;;;;;;;6.10;5.50;;;11.20;99.90;;;;;;4897332;29;20459;-66
2021/05/13 05:00:01;;;;;;;6.07;5.57;;;11.30;99.90;;;;;;4896307;29;20502;-65
2021/05/13 05:02:27;;;;;;;6.07;5.57;;;11.30;99.90;;;;;;4896962;29;20231;-66
2021/05/13 05:04:53;;;;;;;6.57;6.07;;;11.20;99.90;;;;;;4897218;29;20814;-67
2021/05/13 05:07:18;;;;;;;7.73;5.97;;;11.30;99.90;;;;;;4897219;29;20179;-66
2021/05/13 05:09:44;;;;;;;8.13;6.17;;;11.30;99.90;;;;;;4896474;29;20630;-66
2021/05/13 05:12:12;;;;;;;7.00;6.40;;;11.30;99.90;;;;;;4897054;29;20230;-66
2021/05/13 05:14:38;;;;;;;9.57;6.60;;;11.30;99.90;;;;;;4896965;29;20207;-67
2021/05/13 05:17:04;;;;;;;7.73;6.23;;;11.50;99.90;;;;;;4896981;29;20419;-67
2021/05/13 05:19:30;;;;;;;7.93;6.80;;;11.70;99.90;;;;;;4896311;29;20202;-66
2021/05/13 05:21:55;;;;;;;7.30;6.00;;;11.70;99.90;;;;;;4896925;29;20513;-66
2021/05/13 05:24:21;;;;;;;7.10;6.40;;;11.80;99.90;;;;;;4896957;29;21047;-67
2021/05/13 05:26:46;;;;;;;6.70;6.20;;;12.00;99.90;;;;;;4896837;29;20183;-66
2021/05/13 05:29:12;;;;;;;7.17;6.57;;;12.10;99.90;;;;;;4894914;29;20269;-66
2021/05/13 05:31:37;;;;;;;8.07;6.10;;;12.30;99.90;;;;;;4896668;29;20186;-67
2021/05/13 05:34:03;;;;;;;7.87;7.03;;;12.50;99.90;;;;;;4896511;29;20215;-68
2021/05/13 05:36:29;;;;;;;17.83;7.13;;;12.80;99.90;;;;;;4896678;29;20211;-66
2021/05/13 05:38:55;;;;;;;7.00;6.40;;;12.90;99.90;;;;;;4895862;29;20250;-66
2021/05/13 05:41:24;;;;;;;7.10;6.43;;;13.00;99.90;;;;;;4896676;29;20365;-66
2021/05/13 05:43:49;;;;;;;7.63;6.57;;;13.20;99.90;;;;;;4896293;29;20446;-66
2021/05/13 05:46:15;;;;;;;9.77;7.10;;;13.30;99.90;;;;;;4896713;29;20426;-66
2021/05/13 05:48:40;;;;;;;7.63;6.67;;;13.30;99.90;;;;;;4896375;29;20190;-67
2021/05/13 05:51:06;;;;;;;9.27;8.37;;;13.40;99.90;;;;;;4896334;29;20179;-67
2021/05/13 05:53:32;;;;;;;6.83;6.10;;;13.50;99.90;;;;;;4896289;29;20544;-65
2021/05/13 05:55:57;;;;;;;9.87;6.93;;;13.60;99.90;;;;;;4896327;29;20768;-66
2021/05/13 05:58:23;;;;;;;7.00;6.40;;;13.80;99.90;;;;;;4896320;29;20175;-67
2021/05/13 06:00:48;;;;;;;7.90;6.90;;;13.80;99.90;;;;;;4895487;29;20572;-66
2021/05/13 06:03:14;;;;;;;6.43;5.80;;;14.00;99.90;;;;;;4896235;29;20183;-66
2021/05/13 06:05:39;;;;;;;6.97;6.13;;;14.00;99.90;;;;;;4896215;29;20191;-66
2021/05/13 06:08:05;;;;;;;8.13;5.70;;;14.00;99.90;;;;;;4896075;29;20198;-66
2021/05/13 06:10:31;;;;;;;12.83;6.17;;;13.80;99.90;;;;;;4895481;29;20311;-66
2021/05/13 06:12:57;;;;;;;5.37;4.77;;;13.80;99.90;;;;;;4896022;29;20669;-65
2021/05/13 06:15:25;;;;;;;6.00;5.50;;;13.90;99.90;;;;;;4896036;29;20458;-67
2021/05/13 06:17:51;;;;;;;8.30;5.27;;;14.00;99.90;;;;;;4895912;29;20434;-66
2021/05/13 06:20:26;;;;;;;7.43;6.07;;;14.10;99.90;;;;;;4895124;29;20979;-66
2021/05/13 06:22:53;;;;;;;6.00;5.30;;;14.20;99.90;;;;;;4895983;29;20521;-66
2021/05/13 06:25:20;;;;;;;5.03;4.63;;;14.20;99.90;;;;;;4895858;29;20447;-66
2021/05/13 06:27:46;;;;;;;6.30;5.80;;;14.40;99.90;;;;;;4896063;29;20799;-66
2021/05/13 06:30:16;;;;;;;5.07;4.57;;;14.60;99.90;;;;;;4895187;29;20450;-65
2021/05/13 06:32:43;;;;;;;6.40;5.10;;;14.80;99.90;;;;;;4895863;29;20468;-65
2021/05/13 06:35:08;;;;;;;5.10;4.70;;;14.90;99.90;;;;;;4896296;29;20545;-65
2021/05/13 06:37:34;;;;;;;7.17;5.50;;;14.90;99.90;;;;;;4896213;29;20583;-65
2021/05/13 06:40:00;;;;;;;6.60;5.40;;;15.10;99.90;;;;;;4895042;29;20207;-66
2021/05/13 06:42:25;;;;;;;6.37;5.77;;;15.40;99.90;;;;;;4896061;29;20266;-66
2021/05/13 06:44:51;;;;;;;5.63;5.17;;;15.20;99.90;;;;;;4895688;29;20620;-66
2021/05/13 06:47:17;;;;;;;6.60;5.30;;;15.10;99.90;;;;;;4895819;29;20187;-66
2021/05/13 06:49:43;;;;;;;5.80;5.40;;;15.20;99.90;;;;;;4895374;29;20503;-66
2021/05/13 06:52:09;;;;;;;5.80;5.20;;;15.50;99.90;;;;;;4895547;29;20720;-66
2021/05/13 06:54:34;;;;;;;7.20;5.40;;;15.80;99.90;;;;;;4895549;29;20245;-66
2021/05/13 06:57:00;;;;;;;5.10;4.70;;;16.20;99.90;;;;;;4895573;29;20217;-66
2021/05/13 06:59:27;;;;;;;5.00;4.63;;;16.30;99.90;;;;;;4894739;29;20207;-66
2021/05/13 07:01:55;;;;;;;7.00;6.10;;;16.50;99.90;;;;;;4895388;29;20183;-66
2021/05/13 07:04:22;;;;;;;8.70;7.93;;;16.70;99.90;;;;;;4895478;29;20469;-66
2021/05/13 07:06:48;;;;;;;7.43;6.83;;;16.90;99.90;;;;;;4895415;29;20461;-66
2021/05/13 07:09:14;;;;;;;6.00;5.50;;;16.90;99.90;;;;;;4895249;29;20438;-66
2021/05/13 07:11:39;;;;;;;5.10;4.10;;;17.10;99.90;;;;;;4895551;29;20431;-66
2021/05/13 07:14:05;;;;;;;5.30;4.87;;;17.00;99.90;;;;;;4895352;29;20298;-66
2021/05/13 07:16:33;;;;;;;5.40;3.97;;;17.30;99.90;;;;;;4895741;29;20175;-66
2021/05/13 07:18:58;;;;;;;5.37;4.97;;;17.30;99.90;;;;;;4894600;29;20669;-66
2021/05/13 07:21:24;;;;;;;5.63;3.73;;;17.30;99.90;;;;;;4895259;29;20431;-66
2021/05/13 07:23:50;;;;;;;4.43;3.60;;;17.40;99.90;;;;;;4895520;29;20211;-66
2021/05/13 07:26:15;;;;;;;5.17;4.50;;;17.70;99.90;;;;;;4899186;29;20535;-66
2021/05/13 07:28:41;;;;;;;5.03;4.53;;;17.80;99.90;;;;;;4898625;29;20183;-66
2021/05/13 07:31:08;;;;;;;5.07;4.60;;;17.90;99.90;;;;;;4899010;29;20211;-66
2021/05/13 07:33:34;;;;;;;5.10;4.60;;;17.80;99.90;;;;;;4898892;29;20164;-66
2021/05/13 07:35:59;;;;;;;5.20;4.80;;;17.70;99.90;;;;;;4898834;29;20427;-66
2021/05/13 07:38:25;;;;;;;5.57;5.07;;;17.20;99.90;;;;;;4899058;29;20574;-66
2021/05/13 07:40:51;;;;;;;4.43;4.10;;;17.40;99.90;;;;;;4898894;29;20210;-65
2021/05/13 07:43:19;;;;;;;5.57;5.00;;;17.70;99.90;;;;;;4899223;29;20254;-66
2021/05/13 07:45:45;;;;;;;5.23;4.47;;;18.00;99.90;;;;;;4898558;29;20491;-66
2021/05/13 07:48:11;;;;;;;4.40;4.00;;;18.30;99.90;;;;;;4898575;29;21016;-66
2021/05/13 07:50:37;;;;;;;5.27;4.63;;;18.30;99.90;;;;;;4897904;29;20419;-66
2021/05/13 07:53:04;;;;;;;4.67;4.27;;;18.60;99.90;;;;;;4898931;29;20514;-65
2021/05/13 07:55:30;;;;;;;4.67;4.30;;;18.70;99.90;;;;;;4897433;29;20443;-66
2021/05/13 07:57:56;;;;;;;4.73;4.33;;;19.00;99.90;;;;;;4898298;29;20498;-66
2021/05/13 08:00:21;;;;;;;3.57;3.20;;;19.20;99.90;;;;;;4896431;29;20213;-66
2021/05/13 08:02:47;;;;;;;4.03;3.70;;;19.50;99.90;;;;;;4899118;29;20178;-65
2021/05/13 08:05:13;;;;;;;5.20;4.20;;;19.80;99.90;;;;;;4899361;29;20281;-67
2021/05/13 08:07:38;;;;;;;4.20;3.80;;;19.90;99.90;;;;;;4899143;29;20226;-66
2021/05/13 08:10:05;;;;;;;8.20;4.30;;;19.60;99.90;;;;;;4898399;29;20268;-67
2021/05/13 08:12:30;;;;;;;4.20;3.43;;;19.70;99.90;;;;;;4898639;29;20174;-66
2021/05/13 08:14:56;;;;;;;2.53;2.43;;;19.60;99.90;;;;;;4898957;29;20872;-66
2021/05/13 08:17:22;;;;;;;7.50;2.80;;;19.20;99.90;;;;;;4898618;29;20657;-66
2021/05/13 08:19:47;;;;;;;2.37;2.13;;;19.00;99.90;;;;;;4897085;29;20203;-66
2021/05/13 08:22:13;;;;;;;2.20;2.00;;;18.70;99.90;;;;;;4897800;29;20497;-66
2021/05/13 08:24:38;;;;;;;4.30;2.07;;;18.90;98.70;;;;;;4898530;29;20198;-66
2021/05/13 08:27:04;;;;;;;11.67;10.53;;;18.90;97.50;;;;;;4898771;29;20179;-66
2021/05/13 08:29:31;;;;;;;2.73;2.57;;;19.00;95.50;;;;;;4896989;29;20185;-66
2021/05/13 08:31:57;;;;;;;5.43;3.07;;;19.10;95.60;;;;;;4898456;29;20183;-66
2021/05/13 08:34:23;;;;;;;5.67;5.13;;;19.00;96.30;;;;;;4898427;29;20609;-66
2021/05/13 08:36:48;;;;;;;2.77;2.37;;;18.40;97.30;;;;;;4898261;29;20510;-67
2021/05/13 08:39:14;;;;;;;2.27;2.07;;;18.20;97.90;;;;;;4897980;29;20673;-67
2021/05/13 08:41:40;;;;;;;3.70;2.60;;;18.40;98.40;;;;;;4898577;29;20167;-66
2021/05/13 08:44:07;;;;;;;2.53;2.33;;;18.70;98.70;;;;;;4898227;29;20482;-66
2021/05/13 08:46:38;;;;;;;2.80;2.37;;;19.00;98.70;;;;;;4898719;29;20840;-69
2021/05/13 08:49:05;;;;;;;3.10;2.17;;;19.60;97.30;;;;;;4897735;29;20431;-66
2021/05/13 08:51:32;;;;;;;2.37;2.27;;;20.30;97.50;;;;;;4898478;29;20438;-67
2021/05/13 08:53:57;;;;;;;2.27;2.13;;;20.90;96.40;;;;;;4898181;29;20439;-66
2021/05/13 08:56:26;;;;;;;3.10;2.60;;;21.50;95.60;;;;;;4897095;29;20483;-66
2021/05/13 08:58:52;;;;;;;2.63;2.47;;;21.20;96.10;;;;;;4897432;29;20254;-66
2021/05/13 09:01:21;;;;;;;2.53;2.30;;;21.20;96.60;;;;;;4897785;29;20420;-67
2021/05/13 09:03:51;;;;;;;2.70;2.50;;;21.00;96.80;;;;;;4898288;29;20533;-66
2021/05/13 09:06:41;;;;;;;6.93;2.50;;;21.30;95.30;;;;;;4897693;29;20845;-66
2021/05/13 09:09:11;;;;;;;3.70;2.70;;;21.30;95.70;;;;;;4897233;29;20423;-66
2021/05/13 09:11:50;;;;;;;4.97;2.90;;;20.90;95.90;;;;;;4897774;29;20478;-66
2021/05/13 09:14:24;;;;;;;4.10;3.13;;;20.60;95.70;;;;;;4897748;29;20447;-66
2021/05/13 09:16:50;;;;;;;3.73;3.30;;;20.20;96.30;;;;;;4898383;29;20949;-66
2021/05/13 09:19:23;;;;;;;3.50;3.00;;;19.90;96.20;;;;;;4897488;29;20450;-66
2021/05/13 09:22:04;;;;;;;5.80;3.30;;;20.00;95.70;;;;;;4897527;29;20519;-66
2021/05/13 09:24:51;;;;;;;3.30;2.70;;;20.10;96.00;;;;;;4897719;29;20435;-66
2021/05/13 09:27:18;;;;;;;3.00;2.67;;;20.20;95.70;;;;;;4898351;29;20773;-67
2021/05/13 09:29:45;;;;;;;3.20;3.00;;;20.10;94.80;;;;;;4897051;29;20434;-65
2021/05/13 09:32:19;;;;;;;5.67;2.40;;;20.10;94.80;;;;;;4897086;29;20437;-66
2021/05/13 09:34:45;;;;;;;4.30;2.50;;;19.90;94.30;;;;;;4896621;29;20820;-65
2021/05/13 09:37:11;;;;;;;6.60;4.17;;;19.50;95.10;;;;;;4896801;29;20466;-65
2021/05/13 09:39:44;;;;;;;5.40;4.87;;;19.30;95.50;;;;;;4896254;29;21035;-65
2021/05/13 09:42:10;;;;;;;3.47;2.97;;;19.30;96.00;;;;;;4896722;29;20419;-65
2021/05/13 09:44:37;;;;;;;3.90;2.70;;;19.40;95.00;;;;;;4896422;29;20435;-67
2021/05/13 09:47:21;;;;;;;2.97;2.67;;;19.60;94.70;;;;;;4896057;29;20683;-65
2021/05/13 09:50:02;;;;;;;5.43;2.10;;;19.70;95.00;;;;;;4895967;29;20792;-65
2021/05/13 09:52:48;;;;;;;4.13;2.50;;;20.00;93.60;;;;;;4896808;29;20461;-65
2021/05/13 09:55:35;;;;;;;5.07;3.67;;;20.00;93.60;;;;;;4896388;29;20953;-65
2021/05/13 09:58:07;;;;;;;3.57;2.67;;;19.90;93.20;;;;;;4896472;29;20616;-65
2021/05/13 10:00:48;;;;;;;3.37;2.47;;;19.50;93.80;;;;;;4895516;29;20459;-65
2021/05/13 10:03:18;;;;;;;4.80;2.33;;;19.50;94.50;;;;;;4896603;29;20427;-65
2021/05/13 10:05:49;;;;;;;4.97;3.13;;;19.20;94.80;;;;;;4896071;29;20506;-65
2021/05/13 10:08:16;;;;;;;2.97;2.57;;;19.20;95.20;;;;;;4896034;29;20419;-65
2021/05/13 10:10:42;;;;;;;2.90;2.57;;;19.20;96.00;;;;;;4895559;29;20429;-67
2021/05/13 10:13:09;;;;;;;2.70;2.00;;;19.20;95.50;;;;;;4896058;29;20430;-67
2021/05/13 10:15:40;;;;;;;2.40;2.20;;;19.00;95.10;;;;;;4895918;29;21039;-67
2021/05/13 10:18:16;;;;;;;2.30;2.10;;;19.10;95.90;;;;;;4896104;29;20515;-67
2021/05/13 10:20:43;;;;;;;11.37;2.20;;;19.10;94.40;;;;;;4895027;29;20823;-67
2021/05/13 10:23:13;;;;;;;2.13;1.90;;;19.30;94.80;;;;;;4895860;29;20488;-67
2021/05/13 10:25:39;;;;;;;2.70;1.70;;;19.60;94.40;;;;;;4895990;29;21033;-67
2021/05/13 10:28:05;;;;;;;2.23;2.03;;;20.00;93.90;;;;;;4895895;29;20929;-67
2021/05/13 10:30:36;;;;;;;3.60;2.23;;;20.00;94.10;;;;;;4895425;29;20482;-67
2021/05/13 10:33:12;;;;;;;3.00;2.53;;;20.40;93.30;;;;;;4895896;29;20657;-67
2021/05/13 10:35:39;;;;;;;4.40;2.90;;;20.70;92.70;;;;;;4895529;29;20569;-67
2021/05/13 10:38:13;;;;;;;2.33;2.10;;;20.80;92.00;;;;;;4895733;29;20457;-67
2021/05/13 10:43:35;;;;;;;7.03;2.97;;;19.70;92.10;;;;;;4891012;29;20438;-67
2021/05/13 10:46:01;;;;;;;2.70;1.80;;;19.30;93.70;;;;;;4895806;29;20407;-67
2021/05/13 10:48:39;;;;;;;4.47;2.40;;;18.90;94.70;;;;;;4896104;29;20258;-67
2021/05/13 10:51:08;;;;;;;1.87;1.73;;;18.50;96.40;;;;;;4895708;29;20451;-67
2021/05/13 10:53:33;;;;;;;1.90;1.77;;;18.10;97.40;;;;;;4895566;29;20434;-67
2021/05/13 10:56:30;;;;;;;4.67;1.90;;;18.10;98.10;;;;;;4895464;29;20427;-67
2021/05/13 10:58:58;;;;;;;4.83;2.50;;;18.20;98.30;;;;;;4896954;29;20665;-67
2021/05/13 11:01:33;;;;;;;2.50;2.30;;;18.50;98.70;;;;;;4899490;29;20431;-67
2021/05/13 11:04:20;;;;;;;2.50;2.30;;;18.50;97.80;;;;;;4899270;29;20426;-67
2021/05/13 11:06:55;;;;;;;2.20;1.73;;;18.90;97.30;;;;;;4899513;29;20430;-67
2021/05/13 11:09:43;;;;;;;2.33;2.10;;;19.10;96.90;;;;;;4898650;29;20925;-67
2021/05/13 11:12:11;;;;;;;2.97;1.90;;;19.60;97.10;;;;;;4899311;29;20506;-67
2021/05/13 11:15:01;;;;;;;2.43;1.93;;;20.30;94.80;;;;;;4899235;29;20530;-67
2021/05/13 11:17:47;;;;;;;2.93;2.00;;;22.10;92.50;;;;;;4899261;29;20419;-65
2021/05/13 11:20:23;;;;;;;2.33;2.00;;;23.80;86.80;;;;;;4898371;29;20994;-66
2021/05/13 11:22:58;;;;;;;2.93;1.60;;;25.40;76.50;;;;;;4899173;29;20426;-66
2021/05/13 11:25:34;;;;;;;2.83;2.57;;;25.40;71.00;;;;;;4899057;29;20577;-66
2021/05/13 11:28:00;;;;;;;2.40;1.93;;;24.70;68.90;;;;;;4898963;29;20834;-66
2021/05/13 11:30:27;;;;;;;2.27;2.17;;;24.80;69.60;;;;;;4898494;29;20433;-65
2021/05/13 11:32:54;;;;;;;2.50;1.80;;;24.10;70.00;;;;;;4898886;29;21005;-66
2021/05/13 11:35:21;;;;;;;1.77;1.40;;;23.90;69.10;;;;;;4898730;29;20814;-66
2021/05/13 11:37:50;;;;;;;2.63;1.63;;;23.10;71.60;;;;;;4898615;29;20426;-66
2021/05/13 11:40:28;;;;;;;1.40;1.30;;;22.20;76.30;;;;;;4898051;29;21053;-66
2021/05/13 11:43:15;;;;;;;4.00;1.83;;;21.40;78.50;;;;;;4898764;29;20967;-66
2021/05/13 11:45:41;;;;;;;1.43;1.20;;;21.30;80.90;;;;;;4898542;29;20443;-65
2021/05/13 11:48:23;;;;;;;2.80;1.70;;;20.50;81.20;;;;;;4898631;29;20447;-65
2021/05/13 11:50:49;;;;;;;2.70;1.47;;;20.00;83.40;;;;;;4898043;29;20175;-66
2021/05/13 11:53:17;;;;;;;2.03;1.27;;;19.70;84.20;;;;;;4898735;29;20455;-66
2021/05/13 11:55:45;;;;;;;3.03;1.60;;;19.70;85.60;;;;;;4898397;29;20457;-65
2021/05/13 11:58:13;;;;;;;1.57;1.40;;;19.50;86.50;;;;;;4897374;29;20431;-66
2021/05/13 12:00:40;;;;;;;3.10;1.90;;;19.20;86.30;;;;;;4897660;29;20489;-65
2021/05/13 12:03:12;;;;;;;1.93;1.73;;;18.90;87.90;;;;;;4899012;29;20812;-65
2021/05/13 12:06:04;;;;;;;2.93;1.80;;;18.90;90.70;;;;;;4898331;29;20953;-66
2021/05/13 12:08:30;;;;;;;2.30;2.00;;;19.10;91.10;;;;;;4895718;29;20443;-67
2021/05/13 12:10:55;;;;;;;2.20;1.80;;;19.00;91.40;;;;;;4897014;29;20523;-67
2021/05/13 12:13:27;;;;;;;1.50;1.40;;;18.90;91.80;;;;;;4898384;29;20600;-67
2021/05/13 12:16:03;;;;;;;2.00;1.50;;;19.00;91.60;;;;;;4898264;29;20249;-65
2021/05/13 12:18:29;;;;;;;1.90;1.80;;;18.90;91.80;;;;;;4898128;29;20455;-67
2021/05/13 12:20:56;;;;;;;1.60;1.50;;;18.80;91.40;;;;;;4897306;29;21047;-67
2021/05/13 12:23:22;;;;;;;2.80;1.50;;;18.80;90.60;;;;;;4896674;29;20505;-67
2021/05/13 12:25:47;;;;;;;2.97;1.83;;;18.90;90.20;;;;;;4898332;29;20933;-67
2021/05/13 12:28:15;;;;;;;1.53;1.43;;;19.40;90.10;;;;;;4898142;29;20207;-67
2021/05/13 12:30:40;;;;;;;2.03;1.20;;;19.50;89.60;;;;;;4897610;29;20210;-67
2021/05/13 12:33:28;;;;;;;2.77;1.33;;;19.60;88.40;;;;;;4897837;29;20455;-65
2021/05/13 12:35:54;;;;;;;1.97;1.47;;;19.40;87.40;;;;;;4898157;29;20195;-68
2021/05/13 12:38:23;;;;;;;1.73;1.60;;;19.60;84.90;;;;;;4897787;29;20447;-68
2021/05/13 12:41:09;;;;;;;1.10;1.00;;;19.60;85.50;;;;;;4897273;29;20530;-66
2021/05/13 12:43:35;;;;;;;2.20;1.40;;;20.10;84.00;;;;;;4897537;29;20420;-68
2021/05/13 12:46:00;;;;;;;1.60;1.40;;;20.20;81.40;;;;;;4897463;29;20427;-68
2021/05/13 12:48:28;;;;;;;2.47;1.40;;;19.80;82.30;;;;;;4897564;29;20419;-68
2021/05/13 12:50:55;;;;;;;1.80;1.43;;;20.00;83.50;;;;;;4896992;29;20179;-68
2021/05/13 12:53:21;;;;;;;1.80;1.70;;;20.40;82.00;;;;;;4897474;29;20434;-68
2021/05/13 12:55:47;;;;;;;3.10;1.80;;;20.50;82.40;;;;;;4897817;29;20423;-66
2021/05/13 12:58:25;;;;;;;1.83;1.40;;;20.50;82.60;;;;;;4897743;29;20186;-68
2021/05/13 13:00:58;;;;;;;3.40;1.30;;;20.30;79.40;;;;;;4896630;29;20466;-68
2021/05/13 13:03:39;;;;;;;1.87;1.07;;;20.30;80.90;;;;;;4897294;29;20411;-68